Time;durP1;ratioP1;P1;durP2;ratioP2;P2;SDS_P1;SDS_P2;PMS_P1;PMS_P2;Temp;Humidity;BMP_temperature;BMP_pressure;BME280_temperature;BME280_humidity;BME280_pressure;Samples;Min_cycle;Max_cycle;Signal;HPM_P1;HPM_P2
2022/03/02 00:01:33;;;;;;;1.85;1.75;;;5.10;99.90;;;;;;5082163;27;20066;-76
2022/03/02 00:03:59;;;;;;;3.38;2.95;;;5.10;99.90;;;;;;5126007;27;20071;-76
2022/03/02 00:06:25;;;;;;;0.30;0.30;;;5.00;99.90;;;;;;5122319;27;20040;-77
2022/03/02 00:08:50;;;;;;;2.60;2.25;;;5.00;99.90;;;;;;5089767;28;20621;-76
2022/03/02 00:11:16;;;;;;;0.82;0.82;;;5.00;99.90;;;;;;5088887;28;20479;-76
2022/03/02 00:13:42;;;;;;;9.60;6.28;;;5.00;99.90;;;;;;5126795;27;20570;-76
2022/03/02 00:16:08;;;;;;;3.90;3.38;;;5.00;99.90;;;;;;5109183;27;20063;-76
2022/03/02 00:18:34;;;;;;;5.97;3.47;;;5.00;99.90;;;;;;5123077;27;20040;-76
2022/03/02 00:21:00;;;;;;;6.63;5.35;;;5.00;99.90;;;;;;5088707;28;20095;-76
2022/03/02 00:23:25;;;;;;;1.60;1.50;;;5.00;99.90;;;;;;5104521;27;20086;-76
2022/03/02 00:25:52;;;;;;;2.17;1.98;;;5.00;99.90;;;;;;5121355;27;20109;-76
2022/03/02 00:28:18;;;;;;;2.10;1.90;;;5.00;99.90;;;;;;5089387;28;20608;-76
2022/03/02 00:30:44;;;;;;;6.82;3.42;;;5.00;99.90;;;;;;5120302;27;20051;-76
2022/03/02 00:33:10;;;;;;;2.45;2.25;;;5.00;99.90;;;;;;5096074;28;20035;-76
2022/03/02 00:35:36;;;;;;;7.90;3.58;;;5.00;99.90;;;;;;5089410;28;20496;-76
2022/03/02 00:38:03;;;;;;;5.35;4.28;;;5.00;99.90;;;;;;5105119;28;20043;-76
2022/03/02 00:40:29;;;;;;;8.48;5.20;;;5.00;99.90;;;;;;5105833;28;20088;-76
2022/03/02 00:42:55;;;;;;;5.63;3.60;;;5.00;99.90;;;;;;5108505;27;20075;-76
2022/03/02 00:45:21;;;;;;;15.23;5.82;;;5.00;99.90;;;;;;5089114;28;20075;-76
2022/03/02 00:47:47;;;;;;;10.55;5.53;;;5.00;99.90;;;;;;5106169;28;20065;-76
2022/03/02 00:50:14;;;;;;;17.45;9.52;;;5.00;99.90;;;;;;5123054;27;20403;-76
2022/03/02 00:52:40;;;;;;;4.32;2.80;;;5.00;99.90;;;;;;5088839;27;20451;-76
2022/03/02 00:55:06;;;;;;;5.38;3.83;;;5.00;99.90;;;;;;5108919;27;20092;-77
2022/03/02 00:57:32;;;;;;;2.22;1.95;;;5.00;99.90;;;;;;5126224;27;20078;-76
2022/03/02 00:59:58;;;;;;;6.03;4.15;;;5.00;99.90;;;;;;5087328;28;20090;-76
2022/03/02 01:02:23;;;;;;;5.47;3.95;;;5.00;99.90;;;;;;5086600;28;20100;-77
2022/03/02 01:04:50;;;;;;;0.55;0.55;;;5.00;99.90;;;;;;5094916;28;20036;-76
2022/03/02 01:07:16;;;;;;;1.25;1.15;;;5.00;99.90;;;;;;5105663;28;20122;-76
2022/03/02 01:09:41;;;;;;;6.63;4.35;;;5.00;99.90;;;;;;5088521;28;20472;-77
2022/03/02 01:12:07;;;;;;;0.65;0.50;;;4.90;99.90;;;;;;5088880;28;20534;-76
2022/03/02 01:14:33;;;;;;;0.50;0.50;;;4.90;99.90;;;;;;5088864;28;20082;-77
2022/03/02 01:16:58;;;;;;;4.10;2.63;;;4.90;99.90;;;;;;5105949;28;20082;-76
2022/03/02 01:19:24;;;;;;;0.30;0.30;;;4.90;99.90;;;;;;5088231;28;20046;-76
2022/03/02 01:21:49;;;;;;;2.90;2.70;;;4.90;99.90;;;;;;5105519;28;20061;-76
2022/03/02 01:24:15;;;;;;;2.05;1.95;;;4.90;99.90;;;;;;5111499;28;20595;-76
2022/03/02 01:26:41;;;;;;;2.03;1.85;;;4.90;99.90;;;;;;5092446;28;20508;-76
2022/03/02 01:29:06;;;;;;;0.70;0.70;;;4.90;99.90;;;;;;5068330;28;20488;-76
2022/03/02 01:31:32;;;;;;;13.68;7.00;;;4.90;99.90;;;;;;5089149;28;20485;-76
2022/03/02 01:33:58;;;;;;;19.83;6.90;;;4.90;99.90;;;;;;5069443;28;20043;-76
2022/03/02 01:36:25;;;;;;;12.07;6.68;;;4.90;99.90;;;;;;5125665;28;20499;-76
2022/03/02 01:38:51;;;;;;;0.68;0.68;;;4.80;99.90;;;;;;5108223;28;20074;-76
2022/03/02 01:41:21;;;;;;;6.15;4.05;;;4.90;99.90;;;;;;5098184;28;20040;-76
2022/03/02 01:43:48;;;;;;;18.02;6.53;;;4.80;99.90;;;;;;5085539;28;20123;-76
2022/03/02 01:46:15;;;;;;;4.53;3.75;;;4.80;99.90;;;;;;5075682;28;20039;-76
2022/03/02 01:48:42;;;;;;;3.67;2.97;;;4.80;99.90;;;;;;5073348;28;20040;-76
2022/03/02 01:51:08;;;;;;;17.70;6.85;;;4.80;99.90;;;;;;5092448;28;20047;-76
2022/03/02 01:53:34;;;;;;;11.70;5.53;;;4.80;99.90;;;;;;5104622;28;20051;-76
2022/03/02 01:56:01;;;;;;;14.95;7.97;;;4.80;99.90;;;;;;5116543;28;20050;-76
2022/03/02 01:58:28;;;;;;;2.60;2.45;;;4.80;99.90;;;;;;5125120;28;20039;-76
2022/03/02 02:00:54;;;;;;;6.72;4.35;;;4.80;99.90;;;;;;5106069;28;20411;-76
2022/03/02 02:03:23;;;;;;;7.45;4.05;;;4.80;99.90;;;;;;5104994;28;20145;-77
2022/03/02 02:05:49;;;;;;;21.98;11.55;;;4.80;99.90;;;;;;5125029;27;20035;-76
2022/03/02 02:08:15;;;;;;;9.98;5.22;;;4.80;99.90;;;;;;5105812;28;20035;-76
2022/03/02 02:10:40;;;;;;;0.47;0.47;;;4.80;99.90;;;;;;5087104;28;20400;-76
2022/03/02 02:13:06;;;;;;;5.75;4.80;;;4.80;99.90;;;;;;5104917;28;20043;-77
2022/03/02 02:15:32;;;;;;;3.55;2.80;;;4.70;99.90;;;;;;5104932;28;20043;-76
2022/03/02 02:17:58;;;;;;;2.55;2.33;;;4.70;99.90;;;;;;5090754;28;20043;-77
2022/03/02 02:20:23;;;;;;;1.15;1.00;;;4.60;99.90;;;;;;5091287;28;20047;-76
2022/03/02 02:22:49;;;;;;;12.35;6.70;;;4.60;99.90;;;;;;5108008;28;20451;-76
2022/03/02 02:25:16;;;;;;;1.30;1.25;;;4.50;99.90;;;;;;5108822;28;20716;-77
2022/03/02 02:27:46;;;;;;;8.40;3.97;;;4.50;99.90;;;;;;5089276;28;20057;-76
2022/03/02 02:30:14;;;;;;;5.32;3.25;;;4.40;99.90;;;;;;5108342;28;20050;-76
2022/03/02 02:32:41;;;;;;;12.98;7.15;;;4.40;99.90;;;;;;5103826;28;20048;-76
2022/03/02 02:35:08;;;;;;;14.20;8.90;;;4.40;99.90;;;;;;5104938;28;20047;-76
2022/03/02 02:37:36;;;;;;;0.68;0.68;;;4.30;99.90;;;;;;5115373;27;20046;-76
2022/03/02 02:40:05;;;;;;;10.02;5.72;;;4.30;99.90;;;;;;5091521;28;20042;-76
2022/03/02 02:42:31;;;;;;;3.40;3.10;;;4.20;99.90;;;;;;5108113;28;20079;-76
2022/03/02 02:44:57;;;;;;;5.57;5.03;;;4.20;99.90;;;;;;5090501;28;20448;-76
2022/03/02 02:47:23;;;;;;;8.68;4.85;;;4.20;99.90;;;;;;5092680;27;20108;-76
2022/03/02 02:49:49;;;;;;;10.60;5.78;;;4.10;99.90;;;;;;5115953;27;20411;-76
2022/03/02 02:52:14;;;;;;;8.45;5.15;;;4.10;99.90;;;;;;5090987;28;20040;-76
2022/03/02 02:54:41;;;;;;;6.75;3.10;;;4.00;99.90;;;;;;5108151;28;20582;-76
2022/03/02 02:57:07;;;;;;;7.22;4.13;;;4.00;99.90;;;;;;5090713;28;20118;-77
2022/03/02 02:59:33;;;;;;;4.90;4.47;;;3.90;99.90;;;;;;5091256;28;20126;-76
2022/03/02 03:01:58;;;;;;;3.40;2.80;;;3.80;99.90;;;;;;5108631;28;20498;-76
2022/03/02 03:04:24;;;;;;;3.38;3.08;;;3.60;99.90;;;;;;5107878;28;20419;-76
2022/03/02 03:06:50;;;;;;;2.97;2.15;;;3.50;99.90;;;;;;5116267;27;20043;-76
2022/03/02 03:09:18;;;;;;;9.07;5.22;;;3.50;99.90;;;;;;5129868;27;20051;-76
2022/03/02 03:11:44;;;;;;;5.82;4.13;;;3.30;99.90;;;;;;5105514;28;20032;-76
2022/03/02 03:14:12;;;;;;;8.52;5.97;;;3.30;99.90;;;;;;5108088;28;20032;-76
2022/03/02 03:16:37;;;;;;;11.18;7.28;;;3.30;99.90;;;;;;5109079;27;20039;-76
2022/03/02 03:19:04;;;;;;;20.38;9.30;;;3.30;99.90;;;;;;5110755;27;20383;-76
2022/03/02 03:21:29;;;;;;;3.92;3.40;;;3.30;99.90;;;;;;5127807;27;20059;-76
2022/03/02 03:23:55;;;;;;;2.35;2.17;;;3.30;99.90;;;;;;5101136;28;20043;-76
2022/03/02 03:26:20;;;;;;;14.05;8.52;;;3.30;99.90;;;;;;5108069;28;20072;-76
2022/03/02 03:28:47;;;;;;;5.70;2.15;;;3.20;99.90;;;;;;5115148;27;20031;-76
2022/03/02 03:31:12;;;;;;;7.85;3.10;;;3.20;99.90;;;;;;5090302;28;20555;-76
2022/03/02 03:33:38;;;;;;;2.03;1.73;;;3.10;99.90;;;;;;5107111;28;20043;-76
2022/03/02 03:36:04;;;;;;;22.50;11.20;;;3.10;99.90;;;;;;5085912;28;20044;-76
2022/03/02 03:38:29;;;;;;;0.60;0.60;;;3.00;99.90;;;;;;5103308;27;20035;-76
2022/03/02 03:40:55;;;;;;;11.27;6.40;;;2.80;99.90;;;;;;5100697;28;20044;-76
2022/03/02 03:43:21;;;;;;;0.50;0.50;;;2.70;99.90;;;;;;5086836;28;20488;-76
2022/03/02 03:45:48;;;;;;;5.82;2.92;;;2.70;99.90;;;;;;5089677;28;20122;-76
2022/03/02 03:48:14;;;;;;;1.30;1.25;;;2.60;99.90;;;;;;5132171;27;20043;-76
2022/03/02 03:50:39;;;;;;;0.88;0.88;;;2.50;99.90;;;;;;5110952;27;20034;-76
2022/03/02 03:53:05;;;;;;;0.60;0.60;;;2.40;99.90;;;;;;5088586;28;20090;-76
2022/03/02 03:55:31;;;;;;;7.68;5.00;;;2.40;99.90;;;;;;5085953;28;20052;-76
2022/03/02 03:57:56;;;;;;;1.58;1.48;;;2.30;99.90;;;;;;5080020;27;20039;-76
2022/03/02 04:00:22;;;;;;;7.88;6.13;;;2.30;99.90;;;;;;5109673;27;20874;-76
2022/03/02 04:02:48;;;;;;;0.40;0.40;;;2.20;99.90;;;;;;5109567;27;20591;-76
2022/03/02 04:05:14;;;;;;;1.27;0.52;;;2.10;99.90;;;;;;5117485;27;20036;-76
2022/03/02 04:07:40;;;;;;;2.40;2.25;;;2.10;99.90;;;;;;5089346;28;20622;-76
2022/03/02 04:10:08;;;;;;;0.55;0.55;;;2.10;99.90;;;;;;5113575;27;20126;-76
2022/03/02 04:12:34;;;;;;;0.63;0.63;;;2.00;99.90;;;;;;5124210;27;20078;-76
2022/03/02 04:15:00;;;;;;;0.73;0.73;;;2.00;99.90;;;;;;5106611;28;20090;-76
2022/03/02 04:17:26;;;;;;;0.90;0.90;;;1.90;99.90;;;;;;5089149;28;20059;-77
2022/03/02 04:19:51;;;;;;;5.50;4.90;;;1.90;99.90;;;;;;5102188;27;20046;-76
2022/03/02 04:22:17;;;;;;;0.95;0.95;;;1.80;99.90;;;;;;5126999;27;20134;-76
2022/03/02 04:24:43;;;;;;;9.18;7.18;;;1.80;99.90;;;;;;5099802;28;20031;-76
2022/03/02 04:27:09;;;;;;;14.23;5.20;;;1.90;99.90;;;;;;5069614;28;20408;-76
2022/03/02 04:29:34;;;;;;;2.17;2.05;;;1.90;99.90;;;;;;5106048;27;20036;-76
2022/03/02 04:32:00;;;;;;;5.20;3.05;;;1.90;99.90;;;;;;5109050;27;20526;-76
2022/03/02 04:34:26;;;;;;;5.10;3.97;;;1.90;99.90;;;;;;5104922;28;20047;-76
2022/03/02 04:36:53;;;;;;;18.25;8.93;;;1.90;99.90;;;;;;5088612;28;20065;-76
2022/03/02 04:39:19;;;;;;;5.88;4.38;;;1.90;99.90;;;;;;5107897;27;20040;-76
2022/03/02 04:41:47;;;;;;;5.60;3.50;;;1.90;99.90;;;;;;5098161;28;20036;-76
2022/03/02 04:44:13;;;;;;;2.60;2.40;;;1.90;99.90;;;;;;5086082;28;20431;-76
2022/03/02 04:46:38;;;;;;;3.90;2.47;;;2.00;99.90;;;;;;5085839;28;20040;-76
2022/03/02 04:49:13;;;;;;;4.10;2.47;;;1.90;99.90;;;;;;5085295;28;20614;-77
2022/03/02 04:51:42;;;;;;;1.13;1.13;;;1.80;99.90;;;;;;5104868;27;20051;-76
2022/03/02 04:55:05;;;;;;;9.25;3.80;;;1.80;99.90;;;;;;5102290;28;20742;-76
2022/03/02 04:56:57;;;;;;;13.10;7.88;;;1.80;99.90;;;;;;5085093;28;20040;-76
2022/03/02 04:59:22;;;;;;;17.45;8.85;;;1.80;99.90;;;;;;5114604;27;20401;-76
2022/03/02 05:01:48;;;;;;;24.33;13.57;;;1.80;99.90;;;;;;5106304;27;20049;-76
2022/03/02 05:04:13;;;;;;;1.88;1.80;;;1.80;99.90;;;;;;5109240;27;20066;-76
2022/03/02 05:06:39;;;;;;;3.67;3.30;;;1.80;99.90;;;;;;5108705;27;20039;-76
2022/03/02 05:09:05;;;;;;;4.22;1.95;;;1.80;99.90;;;;;;5087228;27;20040;-76
2022/03/02 05:11:30;;;;;;;5.05;4.32;;;1.80;99.90;;;;;;5110484;27;20104;-76
2022/03/02 05:13:56;;;;;;;6.10;3.40;;;1.70;99.90;;;;;;5101046;28;20672;-76
2022/03/02 05:16:23;;;;;;;9.75;6.07;;;1.70;99.90;;;;;;5106382;28;20770;-76
2022/03/02 05:18:48;;;;;;;10.82;5.75;;;1.60;99.90;;;;;;5088405;28;20092;-76
2022/03/02 05:21:15;;;;;;;14.82;8.57;;;1.60;99.90;;;;;;5095306;28;20055;-76
2022/03/02 05:23:40;;;;;;;14.95;8.73;;;1.60;99.90;;;;;;5113880;28;20043;-76
2022/03/02 05:26:06;;;;;;;21.40;10.43;;;1.60;99.90;;;;;;5088996;28;20047;-76
2022/03/02 05:28:32;;;;;;;37.22;18.02;;;1.70;99.90;;;;;;5105380;28;20042;-76
2022/03/02 05:30:57;;;;;;;18.02;9.90;;;1.80;99.90;;;;;;5085587;28;20070;-76
2022/03/02 05:33:23;;;;;;;17.23;9.00;;;1.80;99.90;;;;;;5107889;28;20247;-76
2022/03/02 05:35:49;;;;;;;20.90;11.35;;;1.80;99.90;;;;;;5103463;28;20609;-76
2022/03/02 05:38:14;;;;;;;14.13;8.38;;;1.80;99.90;;;;;;5103866;28;20130;-76
2022/03/02 05:40:40;;;;;;;12.90;7.57;;;1.70;99.90;;;;;;5104860;28;20558;-76
2022/03/02 05:43:05;;;;;;;29.67;14.38;;;1.70;99.90;;;;;;5088494;28;20130;-76
2022/03/02 05:45:31;;;;;;;14.63;9.82;;;1.70;99.90;;;;;;5102833;28;20040;-77
2022/03/02 05:47:56;;;;;;;14.15;9.55;;;1.70;99.90;;;;;;5105491;28;20491;-76
2022/03/02 05:50:22;;;;;;;14.20;8.32;;;1.70;99.90;;;;;;5087164;28;20388;-76
2022/03/02 05:52:48;;;;;;;6.40;3.88;;;1.70;99.90;;;;;;5105650;27;20039;-77
2022/03/02 05:55:13;;;;;;;4.72;3.78;;;1.60;99.90;;;;;;5091829;28;20114;-77
2022/03/02 05:57:39;;;;;;;32.38;13.85;;;1.50;99.90;;;;;;5091956;28;20036;-77
2022/03/02 06:00:06;;;;;;;1.38;1.27;;;1.50;99.90;;;;;;5107284;28;20122;-77
2022/03/02 06:02:32;;;;;;;7.47;4.72;;;1.40;99.90;;;;;;5124987;27;20051;-77
2022/03/02 06:04:58;;;;;;;19.33;5.30;;;1.40;99.90;;;;;;5128013;27;20031;-77
2022/03/02 06:07:26;;;;;;;4.68;4.07;;;1.30;99.90;;;;;;5111630;27;20035;-76
2022/03/02 06:09:52;;;;;;;23.50;11.07;;;1.30;99.90;;;;;;5089538;28;20040;-76
2022/03/02 06:12:18;;;;;;;14.65;8.18;;;1.30;99.90;;;;;;5087501;28;20131;-77
2022/03/02 06:14:44;;;;;;;21.60;12.20;;;1.30;99.90;;;;;;5118648;27;20126;-77
2022/03/02 06:17:11;;;;;;;7.45;6.60;;;1.30;99.90;;;;;;5093903;28;20051;-76
2022/03/02 06:19:36;;;;;;;12.15;6.80;;;1.30;99.90;;;;;;5104395;28;20070;-77
2022/03/02 06:22:28;;;;;;;7.57;6.80;;;1.30;99.90;;;;;;5106896;28;20098;-77
2022/03/02 06:24:54;;;;;;;15.88;9.90;;;1.30;99.90;;;;;;5086954;28;20040;-77
2022/03/02 06:27:21;;;;;;;18.23;10.10;;;1.30;99.90;;;;;;5088623;28;20089;-77
2022/03/02 06:29:47;;;;;;;2.20;1.80;;;1.30;99.90;;;;;;5089638;28;20083;-77
2022/03/02 06:32:13;;;;;;;18.90;8.88;;;1.30;99.90;;;;;;5107726;28;20075;-77
2022/03/02 06:34:39;;;;;;;25.55;14.45;;;1.20;99.90;;;;;;5134636;27;20066;-76
2022/03/02 06:37:05;;;;;;;14.32;8.02;;;1.30;99.90;;;;;;5111781;27;20039;-77
2022/03/02 06:39:31;;;;;;;6.00;4.45;;;1.30;99.90;;;;;;5119393;27;20040;-77
2022/03/02 06:42:12;;;;;;;21.08;10.70;;;1.30;99.90;;;;;;5091858;28;20504;-77
2022/03/02 06:44:48;;;;;;;20.27;12.02;;;1.30;99.90;;;;;;5096961;27;20038;-77
2022/03/02 06:47:18;;;;;;;0.80;0.77;;;1.40;99.90;;;;;;5107500;28;20039;-77
2022/03/02 06:50:06;;;;;;;12.63;6.40;;;1.40;99.90;;;;;;5091172;28;20047;-76
2022/03/02 06:52:41;;;;;;;5.43;4.72;;;1.40;99.90;;;;;;5103966;28;20415;-77
2022/03/02 06:55:12;;;;;;;5.95;4.18;;;1.30;99.90;;;;;;5104847;28;20598;-77
2022/03/02 06:57:39;;;;;;;11.88;7.82;;;1.30;99.90;;;;;;5087750;28;20040;-76
2022/03/02 07:00:16;;;;;;;30.33;16.98;;;1.40;99.90;;;;;;5099852;28;20131;-77
2022/03/02 07:02:58;;;;;;;7.03;3.40;;;1.40;99.90;;;;;;5102122;27;20526;-77
2022/03/02 07:05:25;;;;;;;4.45;2.33;;;1.40;99.90;;;;;;5102252;28;20136;-77
2022/03/02 07:07:51;;;;;;;9.00;5.95;;;1.40;99.90;;;;;;5087566;28;20567;-77
2022/03/02 07:10:17;;;;;;;4.28;3.22;;;1.50;99.90;;;;;;5090851;28;20050;-77
2022/03/02 07:12:43;;;;;;;9.57;5.93;;;1.50;99.90;;;;;;5070400;28;20044;-77
2022/03/02 07:15:10;;;;;;;22.63;9.10;;;1.50;99.90;;;;;;5089554;28;20091;-77
2022/03/02 07:17:36;;;;;;;12.98;8.20;;;1.60;99.90;;;;;;5088184;28;20031;-77
2022/03/02 07:20:07;;;;;;;11.00;7.05;;;1.60;99.90;;;;;;5088808;27;20418;-77
2022/03/02 07:22:43;;;;;;;10.38;7.60;;;1.70;99.90;;;;;;5093327;27;20039;-77
2022/03/02 07:25:33;;;;;;;4.55;4.10;;;1.80;99.90;;;;;;5090074;27;20054;-77
2022/03/02 07:27:59;;;;;;;12.27;6.18;;;1.80;99.90;;;;;;5110714;27;20047;-77
2022/03/02 07:30:26;;;;;;;14.27;8.00;;;1.90;99.90;;;;;;5127448;27;20138;-77
2022/03/02 07:32:59;;;;;;;20.52;8.63;;;2.00;99.90;;;;;;5089357;28;20066;-77
2022/03/02 07:35:25;;;;;;;27.70;14.25;;;2.00;99.90;;;;;;5104434;27;20049;-77
2022/03/02 07:37:55;;;;;;;1.08;0.95;;;2.20;99.90;;;;;;5128435;27;20077;-77
2022/03/02 07:40:20;;;;;;;7.47;5.35;;;2.60;99.90;;;;;;5094530;27;20153;-76
2022/03/02 07:42:46;;;;;;;18.33;8.80;;;2.70;99.90;;;;;;5093291;27;20836;-77
2022/03/02 07:45:12;;;;;;;8.43;7.32;;;2.70;99.90;;;;;;5114925;27;20034;-77
2022/03/02 07:47:38;;;;;;;8.57;5.30;;;2.70;99.90;;;;;;5089188;27;20277;-77
2022/03/02 07:50:04;;;;;;;17.73;8.93;;;2.70;99.90;;;;;;5101519;27;20039;-77
2022/03/02 07:52:30;;;;;;;17.65;9.93;;;2.80;99.90;;;;;;5090765;27;20121;-77
2022/03/02 07:55:02;;;;;;;27.27;14.77;;;2.80;99.90;;;;;;5080051;27;20046;-77
2022/03/02 07:57:29;;;;;;;28.02;13.50;;;2.90;99.90;;;;;;5099613;27;20042;-76
2022/03/02 07:59:57;;;;;;;17.40;10.90;;;3.00;99.90;;;;;;5093604;27;20039;-77
2022/03/02 08:02:24;;;;;;;26.95;14.38;;;3.00;99.90;;;;;;5091981;27;20373;-77
2022/03/02 08:04:56;;;;;;;36.33;12.73;;;3.10;99.90;;;;;;5090134;27;20039;-77
2022/03/02 08:07:22;;;;;;;25.25;13.30;;;3.20;99.90;;;;;;5102924;27;20480;-77
2022/03/02 08:09:50;;;;;;;19.42;11.27;;;3.40;99.90;;;;;;5081217;27;20042;-77
2022/03/02 08:12:20;;;;;;;15.65;8.73;;;3.50;99.90;;;;;;5088796;27;20042;-77
2022/03/02 08:14:48;;;;;;;37.08;19.05;;;3.60;99.90;;;;;;5125205;27;20079;-77
2022/03/02 08:17:14;;;;;;;38.35;14.18;;;3.60;99.90;;;;;;5141529;27;20065;-77
2022/03/02 08:19:39;;;;;;;27.38;15.70;;;3.70;99.90;;;;;;5115226;27;21007;-77
2022/03/02 08:22:13;;;;;;;33.20;17.83;;;3.80;99.90;;;;;;5107973;27;20142;-77
2022/03/02 08:24:43;;;;;;;36.45;15.60;;;3.90;99.90;;;;;;5109795;27;20043;-76
2022/03/02 08:27:11;;;;;;;40.83;21.23;;;4.10;99.90;;;;;;5103720;27;20047;-77
2022/03/02 08:29:38;;;;;;;23.67;12.77;;;4.20;99.90;;;;;;5118874;27;20696;-76
2022/03/02 08:32:04;;;;;;;39.10;16.73;;;4.30;99.90;;;;;;5107296;27;20162;-77
2022/03/02 08:34:32;;;;;;;28.30;14.32;;;4.30;99.90;;;;;;5110088;27;20057;-77
2022/03/02 08:36:59;;;;;;;39.13;19.02;;;4.40;99.90;;;;;;5106635;27;20122;-77
2022/03/02 08:39:25;;;;;;;37.00;17.92;;;4.50;99.90;;;;;;5109492;27;20041;-76
2022/03/02 08:41:52;;;;;;;32.35;14.90;;;4.60;99.90;;;;;;5109553;27;20035;-77
2022/03/02 08:44:19;;;;;;;23.73;11.23;;;4.70;99.90;;;;;;5108792;27;20039;-76
2022/03/02 08:46:45;;;;;;;24.92;12.02;;;4.70;99.90;;;;;;5094257;27;20491;-76
2022/03/02 08:49:20;;;;;;;26.33;12.00;;;4.90;99.90;;;;;;5126693;27;20118;-76
2022/03/02 08:51:49;;;;;;;13.93;9.45;;;5.10;99.90;;;;;;5110676;27;20442;-77
2022/03/02 08:54:17;;;;;;;5.88;4.10;;;5.30;99.90;;;;;;5092310;27;20039;-76
2022/03/02 08:56:43;;;;;;;41.05;16.50;;;5.80;99.90;;;;;;5108765;27;20044;-77
2022/03/02 08:59:13;;;;;;;34.10;17.20;;;6.50;99.90;;;;;;5109368;28;20031;-77
2022/03/02 09:01:43;;;;;;;29.70;14.27;;;7.00;99.90;;;;;;5090888;28;20479;-76
2022/03/02 09:04:14;;;;;;;35.13;17.50;;;7.40;99.90;;;;;;5109177;27;20119;-77
2022/03/02 09:06:40;;;;;;;28.13;13.80;;;7.60;99.90;;;;;;5091633;28;20103;-76
2022/03/02 09:09:06;;;;;;;20.35;7.95;;;7.80;99.90;;;;;;5123948;27;20534;-76
2022/03/02 09:11:33;;;;;;;27.58;13.95;;;7.90;99.90;;;;;;5092229;28;20046;-76
2022/03/02 09:14:02;;;;;;;14.32;8.60;;;8.10;99.90;;;;;;5092405;28;20043;-76
2022/03/02 09:16:28;;;;;;;29.85;12.55;;;8.10;99.90;;;;;;5109390;28;20443;-76
2022/03/02 09:18:53;;;;;;;16.13;9.32;;;8.20;99.90;;;;;;5112989;28;20118;-76
2022/03/02 09:21:21;;;;;;;12.55;8.90;;;8.40;99.90;;;;;;5105692;28;20082;-76
2022/03/02 09:23:48;;;;;;;9.52;5.88;;;8.60;99.90;;;;;;5106038;28;20437;-76
2022/03/02 09:26:15;;;;;;;30.20;14.30;;;9.00;99.90;;;;;;5088070;28;20497;-76
2022/03/02 09:28:44;;;;;;;19.25;10.77;;;9.20;99.90;;;;;;5120053;27;20604;-76
2022/03/02 09:31:13;;;;;;;22.50;10.98;;;9.00;99.90;;;;;;5118503;27;20044;-76
2022/03/02 09:33:39;;;;;;;9.30;5.55;;;9.00;99.90;;;;;;5093690;27;20039;-76
2022/03/02 09:36:07;;;;;;;23.15;11.63;;;9.20;99.90;;;;;;5091817;28;20039;-76
2022/03/02 09:38:34;;;;;;;26.63;12.13;;;9.20;99.90;;;;;;5109518;28;20051;-76
2022/03/02 09:41:05;;;;;;;28.50;13.82;;;9.20;99.90;;;;;;5091791;28;20047;-76
2022/03/02 09:43:32;;;;;;;17.55;9.57;;;9.10;99.90;;;;;;5083639;28;20036;-76
2022/03/02 09:46:06;;;;;;;31.80;14.63;;;9.20;99.90;;;;;;5112153;27;20176;-76
2022/03/02 09:48:40;;;;;;;30.05;14.95;;;9.40;99.90;;;;;;5112588;27;20118;-76
2022/03/02 09:51:07;;;;;;;23.52;12.50;;;9.40;99.90;;;;;;5110520;27;20100;-76
2022/03/02 09:53:35;;;;;;;21.40;11.73;;;9.30;99.90;;;;;;5089189;28;20086;-76
2022/03/02 09:56:08;;;;;;;21.00;9.23;;;9.20;99.80;;;;;;5124318;27;20039;-76
2022/03/02 09:58:38;;;;;;;18.65;10.52;;;9.30;99.90;;;;;;5105091;28;20126;-76
2022/03/02 10:01:12;;;;;;;31.65;17.05;;;9.50;99.90;;;;;;5121877;27;20036;-76
2022/03/02 10:03:45;;;;;;;16.90;9.20;;;9.60;99.90;;;;;;5104721;27;20044;-76
2022/03/02 10:06:12;;;;;;;16.27;7.95;;;9.50;99.90;;;;;;5121751;27;20031;-76
2022/03/02 10:08:46;;;;;;;22.05;9.98;;;9.40;99.90;;;;;;5129680;27;20035;-76
2022/03/02 10:11:15;;;;;;;18.38;9.30;;;9.50;99.90;;;;;;5109471;27;20043;-76
2022/03/02 10:13:42;;;;;;;31.02;13.25;;;9.60;99.90;;;;;;5126058;27;20043;-76
2022/03/02 10:16:09;;;;;;;25.85;10.73;;;9.60;99.90;;;;;;5097028;28;20757;-76
2022/03/02 10:18:35;;;;;;;23.67;12.55;;;9.50;99.90;;;;;;5092048;28;20043;-76
2022/03/02 10:21:05;;;;;;;26.35;13.00;;;9.50;99.90;;;;;;5107102;28;20062;-75
2022/03/02 10:23:35;;;;;;;20.40;10.65;;;9.40;99.90;;;;;;5108770;28;20815;-75
2022/03/02 10:26:08;;;;;;;16.02;4.80;;;9.40;99.70;;;;;;5107659;27;20066;-75
2022/03/02 10:28:43;;;;;;;13.30;8.68;;;9.30;99.90;;;;;;5081618;28;20784;-75
2022/03/02 10:31:18;;;;;;;27.70;13.70;;;9.30;99.90;;;;;;5088056;28;20313;-75
2022/03/02 10:33:52;;;;;;;24.13;11.27;;;9.30;99.90;;;;;;5079447;28;20052;-75
2022/03/02 10:36:20;;;;;;;13.00;7.63;;;9.30;98.80;;;;;;5089151;27;20570;-76
2022/03/02 10:38:55;;;;;;;15.60;9.32;;;9.20;99.90;;;;;;5118064;27;20035;-75
2022/03/02 10:41:21;;;;;;;10.25;6.32;;;9.20;99.90;;;;;;5107871;28;20118;-75
2022/03/02 10:44:20;;;;;;;10.40;5.35;;;9.20;99.90;;;;;;5091211;28;20126;-75
2022/03/02 10:46:55;;;;;;;15.00;8.35;;;9.20;99.90;;;;;;5100860;27;20051;-75
2022/03/02 10:49:22;;;;;;;27.30;11.13;;;9.40;99.90;;;;;;5099085;28;20035;-75
2022/03/02 10:51:48;;;;;;;17.17;10.38;;;9.40;99.90;;;;;;5090896;28;20044;-75
2022/03/02 10:54:23;;;;;;;31.60;5.32;;;9.40;99.20;;;;;;5105616;28;20039;-75
2022/03/02 10:56:53;;;;;;;26.55;14.95;;;9.40;98.70;;;;;;5094765;27;20515;-76
2022/03/02 10:59:23;;;;;;;22.42;10.65;;;9.40;97.90;;;;;;5108047;28;20632;-76
2022/03/02 11:01:50;;;;;;;18.48;9.88;;;9.40;98.30;;;;;;5108130;28;20054;-75
2022/03/02 11:04:18;;;;;;;15.77;8.02;;;9.30;99.00;;;;;;5091684;28;20379;-75
2022/03/02 11:06:44;;;;;;;17.23;9.30;;;9.40;99.60;;;;;;5111799;27;20042;-75
2022/03/02 11:09:10;;;;;;;27.63;14.82;;;9.50;97.90;;;;;;5107464;28;20044;-75
2022/03/02 11:11:36;;;;;;;20.63;10.27;;;9.50;97.70;;;;;;5104424;28;20044;-75
2022/03/02 11:14:08;;;;;;;14.40;7.90;;;9.50;97.50;;;;;;5089226;28;20050;-75
2022/03/02 11:16:33;;;;;;;23.02;10.50;;;9.60;98.90;;;;;;5090491;28;20109;-75
2022/03/02 11:19:14;;;;;;;13.93;7.85;;;9.70;97.90;;;;;;5088261;28;20660;-75
2022/03/02 11:21:41;;;;;;;18.60;8.18;;;9.70;97.00;;;;;;5086709;28;20055;-75
2022/03/02 11:24:09;;;;;;;12.57;7.47;;;9.70;98.10;;;;;;5085935;28;20188;-75
2022/03/02 11:26:37;;;;;;;18.27;9.02;;;9.80;98.70;;;;;;5070591;28;20044;-75
2022/03/02 11:29:12;;;;;;;23.90;12.50;;;9.90;94.40;;;;;;5086654;28;20043;-75
2022/03/02 11:31:47;;;;;;;19.60;11.45;;;9.90;94.20;;;;;;5069076;28;20047;-75
2022/03/02 11:34:26;;;;;;;12.18;6.78;;;9.90;92.90;;;;;;5082373;28;20135;-75
2022/03/02 11:36:59;;;;;;;17.92;8.65;;;9.90;94.80;;;;;;5066875;28;20045;-74
2022/03/02 11:39:27;;;;;;;10.73;6.88;;;10.10;93.50;;;;;;5083677;28;20043;-75
2022/03/02 11:41:55;;;;;;;13.63;7.80;;;10.00;92.00;;;;;;5099584;28;20492;-75
2022/03/02 11:44:41;;;;;;;20.77;8.57;;;10.00;92.60;;;;;;5067978;28;20040;-75
2022/03/02 11:47:17;;;;;;;15.90;8.50;;;10.10;93.20;;;;;;5069778;28;20036;-75
2022/03/02 11:49:55;;;;;;;8.73;6.10;;;10.30;92.90;;;;;;5068118;28;20093;-75
2022/03/02 11:52:26;;;;;;;17.60;8.60;;;10.30;92.70;;;;;;5086738;28;20040;-75
2022/03/02 11:55:05;;;;;;;14.95;6.65;;;10.40;90.40;;;;;;5065435;28;20048;-74
2022/03/02 11:57:39;;;;;;;31.95;13.40;;;10.30;91.30;;;;;;5066815;28;20048;-75
2022/03/02 12:00:14;;;;;;;13.82;7.70;;;10.40;90.70;;;;;;5066134;28;20126;-75
2022/03/02 12:02:49;;;;;;;24.25;13.35;;;10.50;90.60;;;;;;5069459;28;20100;-75
2022/03/02 12:05:24;;;;;;;23.83;11.73;;;10.50;85.50;;;;;;5086449;28;20040;-75
2022/03/02 12:07:59;;;;;;;17.08;7.75;;;10.40;84.40;;;;;;5066031;28;20048;-75
2022/03/02 12:10:30;;;;;;;16.98;9.55;;;10.30;87.40;;;;;;5081362;28;20169;-75
2022/03/02 12:12:57;;;;;;;14.57;7.00;;;10.30;90.10;;;;;;5085064;28;20036;-75
2022/03/02 12:15:25;;;;;;;20.33;9.43;;;10.40;89.00;;;;;;5099161;28;20048;-75
2022/03/02 12:17:52;;;;;;;25.05;9.88;;;10.40;90.10;;;;;;5078999;28;20408;-75
2022/03/02 12:20:20;;;;;;;19.73;10.48;;;10.50;88.50;;;;;;5070331;28;20447;-74
2022/03/02 12:22:55;;;;;;;15.45;7.90;;;10.50;84.70;;;;;;5102676;27;20043;-74
2022/03/02 12:25:24;;;;;;;26.40;5.95;;;10.40;85.80;;;;;;5093040;28;20594;-75
2022/03/02 12:27:58;;;;;;;16.58;8.25;;;10.40;86.70;;;;;;5103363;28;20074;-75
2022/03/02 12:30:24;;;;;;;18.52;9.75;;;10.40;89.20;;;;;;5088331;28;20457;-75
2022/03/02 12:32:54;;;;;;;16.77;8.00;;;10.50;88.20;;;;;;5084667;28;20104;-75
2022/03/02 12:35:23;;;;;;;17.13;7.55;;;10.50;87.20;;;;;;5085852;28;20048;-74
2022/03/02 12:37:54;;;;;;;15.48;7.80;;;10.50;87.40;;;;;;5083270;27;20495;-75
2022/03/02 12:40:20;;;;;;;15.90;8.43;;;10.50;88.50;;;;;;5107380;27;20155;-74
2022/03/02 12:42:48;;;;;;;9.25;4.90;;;10.60;89.10;;;;;;5106082;28;20040;-75
2022/03/02 12:45:15;;;;;;;17.33;8.50;;;10.60;88.00;;;;;;5089117;28;20054;-75
2022/03/02 12:47:42;;;;;;;10.50;6.03;;;10.70;86.40;;;;;;5075179;28;20375;-74
2022/03/02 12:50:15;;;;;;;21.45;9.93;;;10.60;86.30;;;;;;5102644;28;20044;-75
2022/03/02 12:52:41;;;;;;;14.57;8.07;;;10.60;84.20;;;;;;5085740;28;20089;-75